Time;durP1;ratioP1;P1;durP2;ratioP2;P2;SDS_P1;SDS_P2;PMS_P1;PMS_P2;Temp;Humidity;BMP_temperature;BMP_pressure;BME280_temperature;BME280_humidity;BME280_pressure;Samples;Min_cycle;Max_cycle;Signal;HPM_P1;HPM_P2
2023/05/22 00:01:13;;;;;;;31.45;24.60;;;16.70;99.90;;;;;;4992120;28;20041;-83
2023/05/22 00:03:39;;;;;;;27.88;23.70;;;16.70;99.90;;;;;;4976372;28;20152;-83
2023/05/22 00:06:08;;;;;;;24.95;21.77;;;16.70;99.90;;;;;;4977861;28;20504;-83
2023/05/22 00:08:35;;;;;;;27.77;23.02;;;16.80;99.90;;;;;;4974643;28;20326;-83
2023/05/22 00:11:00;;;;;;;28.00;22.73;;;16.90;99.90;;;;;;4977260;28;20578;-83
2023/05/22 00:13:26;;;;;;;31.50;25.17;;;16.80;99.90;;;;;;4992684;28;20572;-82
2023/05/22 00:15:52;;;;;;;28.27;23.45;;;16.80;99.90;;;;;;4979657;28;20047;-83
2023/05/22 00:18:18;;;;;;;28.38;23.10;;;16.90;99.90;;;;;;4979413;28;20085;-83
2023/05/22 00:20:45;;;;;;;26.00;23.20;;;16.90;99.90;;;;;;4975305;28;20066;-83
2023/05/22 00:23:18;;;;;;;28.75;24.10;;;16.90;99.90;;;;;;4976908;28;20057;-83
2023/05/22 00:25:44;;;;;;;26.35;22.75;;;16.90;99.90;;;;;;4985451;28;20098;-83
2023/05/22 00:28:10;;;;;;;27.52;23.13;;;16.80;99.90;;;;;;4977380;28;20523;-83
2023/05/22 00:30:36;;;;;;;27.05;23.33;;;16.80;99.90;;;;;;4959440;28;20489;-83
2023/05/22 00:33:02;;;;;;;28.08;23.40;;;16.80;99.90;;;;;;4977680;28;20112;-83
2023/05/22 00:35:28;;;;;;;30.70;24.70;;;16.70;99.90;;;;;;4968725;28;20065;-83
2023/05/22 00:37:54;;;;;;;27.27;22.77;;;16.80;99.90;;;;;;4967544;28;20129;-83
2023/05/22 00:40:20;;;;;;;27.25;22.08;;;16.80;99.90;;;;;;4974303;28;20129;-82
2023/05/22 00:42:46;;;;;;;28.85;23.70;;;16.80;99.90;;;;;;4973114;28;20512;-83
2023/05/22 00:45:15;;;;;;;31.52;23.92;;;16.80;99.90;;;;;;4959564;28;20038;-83
2023/05/22 00:47:41;;;;;;;25.13;22.42;;;16.80;99.90;;;;;;4973759;28;20100;-83
2023/05/22 00:50:09;;;;;;;31.10;24.05;;;16.80;99.90;;;;;;4988106;28;20494;-83
2023/05/22 00:52:40;;;;;;;26.67;23.63;;;16.80;99.90;;;;;;4978034;28;20038;-82
2023/05/22 00:55:07;;;;;;;26.95;23.88;;;16.70;99.90;;;;;;4991872;28;20100;-83
2023/05/22 00:57:34;;;;;;;26.05;23.25;;;16.80;99.90;;;;;;4978684;28;20113;-82
2023/05/22 01:00:03;;;;;;;27.13;22.98;;;16.80;99.90;;;;;;4977674;28;20046;-83
2023/05/22 01:02:31;;;;;;;28.05;24.73;;;16.80;99.90;;;;;;4978996;28;20114;-83
2023/05/22 01:04:57;;;;;;;32.38;26.10;;;16.80;99.90;;;;;;4971815;28;20133;-83
2023/05/22 01:07:23;;;;;;;28.42;23.40;;;16.80;99.90;;;;;;4973904;28;20042;-83
2023/05/22 01:09:51;;;;;;;25.13;21.75;;;16.80;99.90;;;;;;4975217;28;20039;-83
2023/05/22 01:12:33;;;;;;;30.45;23.83;;;16.70;99.90;;;;;;4977268;28;20053;-83
2023/05/22 01:15:20;;;;;;;24.15;21.38;;;16.70;99.90;;;;;;4993836;28;20333;-83
2023/05/22 01:18:18;;;;;;;28.08;24.00;;;16.70;99.90;;;;;;4976163;28;20062;-83
2023/05/22 01:21:03;;;;;;;30.75;24.95;;;16.80;99.90;;;;;;4976030;28;20046;-83
2023/05/22 01:24:10;;;;;;;28.48;24.00;;;16.70;99.90;;;;;;4972652;28;20041;-83
2023/05/22 01:27:11;;;;;;;26.67;23.83;;;16.70;99.90;;;;;;4971627;28;20046;-83
2023/05/22 01:29:45;;;;;;;28.48;24.30;;;16.70;99.90;;;;;;4995549;28;20038;-83
2023/05/22 01:32:14;;;;;;;33.90;25.93;;;16.60;99.90;;;;;;4992176;28;20057;-83
2023/05/22 01:34:45;;;;;;;32.17;27.17;;;16.70;99.90;;;;;;4976102;28;20345;-83
2023/05/22 01:37:12;;;;;;;33.10;27.52;;;16.70;99.90;;;;;;4990824;28;20038;-83
2023/05/22 01:39:39;;;;;;;30.17;26.88;;;16.70;99.90;;;;;;4978756;28;20049;-83
2023/05/22 01:42:05;;;;;;;34.15;26.75;;;16.70;99.90;;;;;;4986581;28;20094;-84
2023/05/22 01:44:34;;;;;;;28.60;25.38;;;16.60;99.90;;;;;;4975630;28;20061;-83
2023/05/22 01:47:03;;;;;;;33.83;25.33;;;16.70;99.90;;;;;;4970544;28;20471;-83
2023/05/22 01:49:31;;;;;;;31.92;26.35;;;16.70;99.90;;;;;;4974307;28;20038;-84
2023/05/22 01:52:31;;;;;;;32.97;28.25;;;16.60;99.90;;;;;;4969855;28;20466;-83
2023/05/22 01:55:02;;;;;;;32.20;25.58;;;16.60;99.90;;;;;;4988507;28;20050;-84
2023/05/22 01:57:37;;;;;;;32.35;26.50;;;16.60;99.90;;;;;;4976794;28;20034;-83
2023/05/22 02:00:08;;;;;;;;;;;16.60;99.90;;;;;;4971447;28;20453;-83
2023/05/22 02:02:41;;;;;;;31.50;27.08;;;16.50;99.90;;;;;;4986275;28;19925;-83
2023/05/22 02:05:10;;;;;;;31.83;26.17;;;16.50;99.90;;;;;;4977661;28;20050;-83
2023/05/22 02:07:40;;;;;;;29.63;26.02;;;16.60;99.90;;;;;;4976596;28;20057;-83
2023/05/22 02:10:08;;;;;;;32.58;26.08;;;16.60;99.90;;;;;;4977983;28;20097;-83
2023/05/22 02:12:34;;;;;;;34.13;28.55;;;16.60;99.90;;;;;;4969772;28;20057;-83
2023/05/22 02:15:00;;;;;;;35.42;29.45;;;16.60;99.90;;;;;;4992857;28;20049;-83
2023/05/22 02:17:26;;;;;;;34.67;28.85;;;16.60;99.90;;;;;;4977282;28;20042;-83
2023/05/22 02:19:52;;;;;;;34.53;28.73;;;16.60;99.90;;;;;;4972455;28;20054;-83
2023/05/22 02:22:17;;;;;;;32.50;26.70;;;16.60;99.90;;;;;;4973391;28;20047;-83
2023/05/22 02:24:49;;;;;;;32.97;27.00;;;16.60;99.90;;;;;;4979619;28;20050;-83
2023/05/22 02:27:16;;;;;;;36.90;29.27;;;16.60;99.90;;;;;;4957155;28;20173;-83
2023/05/22 02:29:41;;;;;;;33.92;29.25;;;16.60;99.90;;;;;;4971870;28;20507;-83
2023/05/22 02:32:07;;;;;;;38.17;29.63;;;16.50;99.90;;;;;;4988041;28;20232;-83
2023/05/22 02:34:33;;;;;;;32.75;28.33;;;16.50;99.90;;;;;;4990936;28;20092;-83
2023/05/22 02:37:03;;;;;;;34.95;28.88;;;16.60;99.90;;;;;;4974529;28;20125;-83
2023/05/22 02:39:31;;;;;;;34.08;28.73;;;16.60;99.90;;;;;;4972504;28;20034;-83
2023/05/22 02:41:57;;;;;;;33.10;27.63;;;16.70;99.90;;;;;;4986459;28;20378;-83
2023/05/22 02:44:23;;;;;;;30.35;27.05;;;16.60;99.90;;;;;;4967814;28;20119;-83
2023/05/22 02:46:48;;;;;;;30.55;26.55;;;16.70;99.90;;;;;;4990987;28;20094;-83
2023/05/22 02:49:14;;;;;;;30.20;26.90;;;16.60;99.90;;;;;;4972548;28;20268;-83
2023/05/22 02:51:40;;;;;;;31.45;26.95;;;16.70;99.90;;;;;;4966626;28;20453;-83
2023/05/22 02:54:05;;;;;;;33.13;25.35;;;16.60;99.90;;;;;;4970360;28;20050;-83
2023/05/22 02:56:31;;;;;;;33.35;27.65;;;16.60;99.90;;;;;;4973366;28;20125;-83
2023/05/22 02:58:57;;;;;;;34.53;28.67;;;16.60;99.90;;;;;;4970694;28;20097;-83
2023/05/22 03:01:22;;;;;;;29.60;26.40;;;16.60;99.90;;;;;;4959738;28;21017;-83
2023/05/22 03:03:49;;;;;;;29.17;25.08;;;16.50;99.90;;;;;;4988740;28;20399;-83
2023/05/22 03:06:15;;;;;;;32.97;28.00;;;16.50;99.90;;;;;;4977353;28;20595;-83
2023/05/22 03:08:42;;;;;;;31.83;25.67;;;16.50;99.90;;;;;;4957983;28;20038;-83
2023/05/22 03:11:08;;;;;;;32.33;26.00;;;16.50;99.90;;;;;;4975844;28;20469;-84
2023/05/22 03:13:34;;;;;;;31.67;25.90;;;16.50;99.90;;;;;;4974114;28;20066;-83
2023/05/22 03:16:03;;;;;;;33.60;25.63;;;16.60;99.90;;;;;;4957313;28;20470;-84
2023/05/22 03:18:34;;;;;;;31.42;25.95;;;16.60;99.90;;;;;;4975628;28;20101;-83
2023/05/22 03:21:06;;;;;;;32.00;27.45;;;16.60;99.90;;;;;;4972105;28;20125;-83
2023/05/22 03:23:31;;;;;;;33.22;26.52;;;16.60;99.90;;;;;;4977987;28;20225;-83
2023/05/22 03:25:57;;;;;;;33.58;27.10;;;16.60;99.90;;;;;;4970090;28;20355;-83
2023/05/22 03:28:23;;;;;;;31.40;26.10;;;16.60;99.90;;;;;;4971857;28;20073;-83
2023/05/22 03:30:48;;;;;;;31.67;25.83;;;16.60;99.90;;;;;;4970994;28;20045;-83
2023/05/22 03:33:14;;;;;;;32.58;27.10;;;16.60;99.90;;;;;;4974509;28;20053;-83
2023/05/22 03:35:42;;;;;;;34.55;26.75;;;16.50;99.90;;;;;;4973926;28;20039;-83
2023/05/22 03:38:07;;;;;;;32.22;27.92;;;16.50;99.90;;;;;;4973352;28;20100;-83
2023/05/22 03:40:33;;;;;;;30.63;26.13;;;16.50;99.90;;;;;;4992699;28;20038;-83
2023/05/22 03:42:58;;;;;;;34.20;26.50;;;16.50;99.90;;;;;;4970297;28;20190;-83
2023/05/22 03:45:24;;;;;;;29.75;25.52;;;16.50;99.90;;;;;;4975926;28;20043;-83
2023/05/22 03:47:50;;;;;;;29.80;24.70;;;16.50;99.90;;;;;;4976277;28;20120;-84
2023/05/22 03:50:16;;;;;;;33.65;25.85;;;16.60;99.90;;;;;;4971551;28;20046;-84
2023/05/22 03:52:41;;;;;;;28.45;24.25;;;16.60;99.90;;;;;;4957085;28;20057;-83
2023/05/22 03:55:07;;;;;;;30.08;24.88;;;16.70;99.90;;;;;;4959373;28;20450;-83
2023/05/22 03:57:33;;;;;;;30.42;24.92;;;16.60;99.90;;;;;;4983256;28;20453;-83
2023/05/22 04:00:08;;;;;;;30.00;26.63;;;16.70;99.90;;;;;;4987313;28;20038;-83
2023/05/22 04:02:37;;;;;;;30.38;25.65;;;16.70;99.90;;;;;;4968850;28;20042;-83
2023/05/22 04:05:07;;;;;;;33.08;26.80;;;16.70;99.90;;;;;;4985201;28;20121;-83
2023/05/22 04:07:32;;;;;;;32.45;26.17;;;16.70;99.90;;;;;;4970808;28;20178;-83
2023/05/22 04:09:58;;;;;;;34.17;27.13;;;16.70;99.90;;;;;;4970470;28;20181;-83
2023/05/22 04:12:24;;;;;;;33.20;27.30;;;16.60;99.90;;;;;;4966555;28;20587;-83
2023/05/22 04:14:49;;;;;;;29.80;26.27;;;16.70;99.90;;;;;;4975648;28;20482;-83
2023/05/22 04:17:15;;;;;;;33.17;26.65;;;16.60;99.90;;;;;;4992137;28;20057;-83
2023/05/22 04:19:41;;;;;;;35.55;28.42;;;16.70;99.90;;;;;;4989623;28;20069;-83
2023/05/22 04:22:07;;;;;;;36.45;26.75;;;16.70;99.90;;;;;;4986938;28;20108;-84
2023/05/22 04:24:38;;;;;;;34.15;28.60;;;16.70;99.90;;;;;;4973625;28;20398;-83
2023/05/22 04:27:04;;;;;;;36.28;27.50;;;16.70;99.90;;;;;;4970552;28;20046;-83
2023/05/22 04:29:30;;;;;;;32.80;28.15;;;16.70;99.90;;;;;;4979098;28;20042;-83
2023/05/22 04:31:55;;;;;;;33.47;28.00;;;16.70;99.90;;;;;;4991368;28;20413;-83
2023/05/22 04:34:21;;;;;;;35.40;28.55;;;16.70;99.90;;;;;;4975694;28;20121;-83
2023/05/22 04:36:47;;;;;;;36.60;28.60;;;16.70;99.90;;;;;;4971339;28;20469;-83
2023/05/22 04:39:14;;;;;;;31.77;27.83;;;16.70;99.90;;;;;;4974552;28;20042;-83
2023/05/22 04:41:39;;;;;;;35.70;29.27;;;16.60;99.90;;;;;;4985670;28;20340;-83
2023/05/22 04:44:06;;;;;;;32.83;28.90;;;16.70;99.90;;;;;;4973064;28;20100;-84
2023/05/22 04:46:33;;;;;;;37.92;28.10;;;16.70;99.90;;;;;;4991363;28;20520;-83
2023/05/22 04:48:59;;;;;;;38.28;30.25;;;16.70;99.90;;;;;;4990143;28;20049;-83
2023/05/22 04:51:26;;;;;;;34.42;29.08;;;16.60;99.90;;;;;;4959426;28;20144;-83
2023/05/22 04:53:51;;;;;;;38.58;29.77;;;16.60;99.90;;;;;;4976517;28;20050;-83
2023/05/22 04:56:17;;;;;;;36.50;29.27;;;16.70;99.90;;;;;;4993796;28;20041;-83
2023/05/22 04:58:43;;;;;;;39.03;30.55;;;16.60;99.90;;;;;;4977905;28;20053;-82
2023/05/22 05:01:09;;;;;;;37.28;29.55;;;16.50;99.90;;;;;;4989229;28;20046;-83
2023/05/22 05:03:35;;;;;;;36.30;29.83;;;16.40;99.90;;;;;;4974057;28;20046;-83
2023/05/22 05:06:01;;;;;;;36.25;29.45;;;16.40;99.90;;;;;;4957307;28;20061;-83
2023/05/22 05:08:26;;;;;;;38.63;30.15;;;16.40;99.90;;;;;;4974434;28;20049;-83
2023/05/22 05:10:52;;;;;;;39.10;29.83;;;16.30;99.90;;;;;;4996197;28;20133;-83
2023/05/22 05:13:17;;;;;;;34.92;28.92;;;16.30;99.90;;;;;;4971903;28;20053;-83
2023/05/22 05:15:43;;;;;;;39.55;30.00;;;16.30;99.90;;;;;;4973156;28;20039;-84
2023/05/22 05:18:10;;;;;;;40.30;30.27;;;16.20;99.90;;;;;;4976163;28;20078;-84
2023/05/22 05:20:35;;;;;;;36.90;27.92;;;16.20;99.90;;;;;;4990954;28;20314;-84
2023/05/22 05:23:03;;;;;;;36.60;28.83;;;16.20;99.90;;;;;;4987558;28;20058;-83
2023/05/22 05:25:29;;;;;;;36.85;28.90;;;16.20;99.90;;;;;;4974718;28;20042;-84
2023/05/22 05:27:56;;;;;;;38.78;28.48;;;16.20;99.90;;;;;;4974513;28;20043;-84
2023/05/22 05:30:22;;;;;;;36.58;28.38;;;16.30;99.90;;;;;;4973366;28;20038;-84
2023/05/22 05:32:47;;;;;;;35.30;27.27;;;16.30;99.90;;;;;;4975266;28;20053;-84
2023/05/22 05:35:13;;;;;;;31.92;25.90;;;16.40;99.90;;;;;;4977054;28;20489;-83
2023/05/22 05:37:39;;;;;;;31.08;25.73;;;16.40;99.90;;;;;;4993338;28;20563;-84
2023/05/22 05:40:11;;;;;;;29.77;25.17;;;16.50;99.90;;;;;;4978754;28;20042;-84
2023/05/22 05:42:36;;;;;;;29.08;23.48;;;16.40;99.90;;;;;;4972619;28;20293;-83
2023/05/22 05:45:02;;;;;;;29.30;23.10;;;16.50;99.90;;;;;;4974739;28;20344;-84
2023/05/22 05:47:28;;;;;;;29.88;23.63;;;16.60;99.90;;;;;;4975658;28;20042;-84
2023/05/22 05:49:54;;;;;;;29.60;22.42;;;16.50;99.90;;;;;;4961703;28;20077;-84
2023/05/22 05:52:20;;;;;;;25.42;20.85;;;16.60;99.90;;;;;;4955856;28;20413;-84
2023/05/22 05:54:46;;;;;;;27.23;22.10;;;16.70;99.90;;;;;;4972218;28;20046;-83
2023/05/22 05:57:16;;;;;;;28.75;21.15;;;16.70;99.90;;;;;;4986658;28;20132;-83
2023/05/22 05:59:41;;;;;;;27.98;19.80;;;16.70;99.90;;;;;;4973989;28;20262;-83
2023/05/22 06:02:09;;;;;;;23.52;19.17;;;16.70;99.90;;;;;;4975691;28;20762;-84
2023/05/22 06:04:35;;;;;;;22.88;19.48;;;16.70;99.90;;;;;;4991662;28;20045;-84
2023/05/22 06:07:01;;;;;;;23.33;18.73;;;16.80;99.90;;;;;;4968070;28;20052;-82
2023/05/22 06:09:27;;;;;;;23.08;19.05;;;16.80;99.90;;;;;;4979380;28;20030;-83
2023/05/22 06:11:55;;;;;;;22.58;19.48;;;16.80;99.90;;;;;;4977065;28;20120;-84
2023/05/22 06:14:21;;;;;;;23.65;18.42;;;16.80;99.90;;;;;;4983890;28;20054;-84
2023/05/22 06:16:47;;;;;;;21.17;17.98;;;16.80;99.90;;;;;;4974110;28;20038;-84
2023/05/22 06:19:14;;;;;;;23.40;18.90;;;16.80;99.90;;;;;;4971724;28;20045;-83
2023/05/22 06:21:40;;;;;;;23.90;18.95;;;16.80;99.90;;;;;;4988999;28;20045;-84
2023/05/22 06:24:06;;;;;;;23.73;18.48;;;16.80;99.90;;;;;;4979069;28;20058;-83
2023/05/22 06:26:32;;;;;;;26.08;17.88;;;16.80;99.90;;;;;;4993564;28;20394;-84
2023/05/22 06:29:06;;;;;;;23.92;17.33;;;16.80;99.90;;;;;;4976673;28;20051;-83
2023/05/22 06:31:34;;;;;;;20.83;16.35;;;16.80;99.90;;;;;;4989274;28;20070;-84
2023/05/22 06:34:00;;;;;;;19.73;16.83;;;16.80;99.90;;;;;;4974245;28;20058;-84
2023/05/22 06:36:26;;;;;;;27.27;17.45;;;16.90;99.90;;;;;;4971392;28;20084;-83
2023/05/22 06:38:53;;;;;;;22.95;17.23;;;16.90;99.90;;;;;;4972981;28;20042;-83
2023/05/22 06:41:20;;;;;;;20.15;15.23;;;16.90;99.90;;;;;;4956275;28;20038;-83
2023/05/22 06:43:46;;;;;;;24.67;15.52;;;16.90;99.90;;;;;;4986380;28;20035;-83
2023/05/22 06:46:11;;;;;;;17.23;14.80;;;16.90;99.90;;;;;;4971528;28;20426;-84
2023/05/22 06:48:37;;;;;;;20.73;14.80;;;17.00;99.90;;;;;;4977361;28;20717;-84
2023/05/22 06:51:07;;;;;;;22.20;15.85;;;17.00;99.90;;;;;;4988994;28;20046;-84
2023/05/22 06:53:33;;;;;;;21.88;15.43;;;17.00;99.90;;;;;;4972802;28;20551;-83
2023/05/22 06:56:04;;;;;;;21.80;14.68;;;17.00;99.90;;;;;;4976570;28;20129;-83
2023/05/22 06:58:30;;;;;;;19.13;14.05;;;17.00;99.90;;;;;;4985080;28;20097;-83
2023/05/22 07:00:58;;;;;;;21.83;15.27;;;17.00;99.90;;;;;;4987166;28;20453;-83
2023/05/22 07:03:24;;;;;;;24.92;15.02;;;17.00;99.90;;;;;;4972517;28;20046;-83
2023/05/22 07:05:50;;;;;;;22.80;13.07;;;16.90;99.90;;;;;;4970651;28;20128;-83
2023/05/22 07:08:15;;;;;;;18.60;12.95;;;16.80;99.90;;;;;;4970349;28;20440;-83
2023/05/22 07:10:41;;;;;;;18.40;11.60;;;16.90;99.90;;;;;;4955653;28;20038;-84
2023/05/22 07:13:06;;;;;;;23.08;13.02;;;16.80;99.90;;;;;;4971067;28;20058;-84
2023/05/22 07:15:32;;;;;;;23.35;13.43;;;16.80;99.90;;;;;;4974788;28;20101;-83
2023/05/22 07:17:58;;;;;;;18.45;11.70;;;16.80;99.90;;;;;;4975720;28;20351;-85
2023/05/22 07:20:25;;;;;;;20.95;11.63;;;16.70;99.90;;;;;;4967350;28;20031;-84
2023/05/22 07:22:50;;;;;;;21.33;11.90;;;16.70;99.90;;;;;;4971348;28;20563;-83
2023/05/22 07:25:21;;;;;;;21.48;12.57;;;16.70;99.90;;;;;;4975992;28;20046;-84
2023/05/22 07:27:47;;;;;;;19.83;11.40;;;16.80;99.90;;;;;;4982266;28;20549;-83
2023/05/22 07:30:18;;;;;;;21.08;11.52;;;16.70;99.90;;;;;;4987911;28;20030;-84
2023/05/22 07:32:49;;;;;;;23.02;11.13;;;16.80;99.90;;;;;;4973973;28;20061;-84
2023/05/22 07:35:15;;;;;;;22.20;10.98;;;16.80;99.90;;;;;;4973022;28;20046;-83
2023/05/22 07:37:41;;;;;;;22.63;11.15;;;16.80;99.90;;;;;;4971052;28;20739;-83
2023/05/22 07:40:09;;;;;;;20.10;10.60;;;16.90;99.90;;;;;;4976147;28;20084;-83
2023/05/22 07:42:36;;;;;;;23.13;10.20;;;16.90;99.90;;;;;;4986769;28;20196;-84
2023/05/22 07:45:05;;;;;;;29.27;10.00;;;16.80;99.90;;;;;;4983599;28;20042;-83
2023/05/22 07:47:33;;;;;;;23.17;9.30;;;16.70;99.90;;;;;;4989470;28;20050;-83
2023/05/22 07:50:02;;;;;;;20.50;9.93;;;16.60;99.90;;;;;;4972172;28;20051;-83
2023/05/22 07:52:28;;;;;;;28.55;9.45;;;16.90;99.90;;;;;;4969823;28;20057;-84
2023/05/22 07:54:54;;;;;;;24.02;10.02;;;16.80;99.90;;;;;;4977562;28;20046;-83
2023/05/22 07:57:21;;;;;;;23.77;9.77;;;16.90;99.90;;;;;;4970146;28;20038;-84
2023/05/22 07:59:47;;;;;;;23.88;9.77;;;17.00;99.90;;;;;;4970515;28;20042;-83
2023/05/22 08:02:13;;;;;;;21.00;10.27;;;17.00;99.90;;;;;;4990039;28;20375;-83
2023/05/22 08:04:39;;;;;;;30.30;10.23;;;17.00;99.90;;;;;;4975680;28;20038;-83
2023/05/22 08:07:05;;;;;;;22.88;10.85;;;16.80;99.90;;;;;;4970050;28;20047;-83
2023/05/22 08:09:31;;;;;;;22.27;10.98;;;16.80;99.90;;;;;;4972085;28;20148;-83
2023/05/22 08:11:56;;;;;;;20.77;10.57;;;16.60;99.90;;;;;;4979656;28;20085;-83
2023/05/22 08:14:22;;;;;;;24.52;10.70;;;16.70;99.90;;;;;;4988265;28;20527;-82
2023/05/22 08:16:48;;;;;;;29.38;11.35;;;16.60;99.90;;;;;;4976573;28;20034;-82
2023/05/22 08:19:14;;;;;;;23.00;10.77;;;16.70;99.90;;;;;;4995693;28;20605;-83
2023/05/22 08:21:39;;;;;;;22.55;10.82;;;16.70;99.90;;;;;;4987232;28;20030;-83
2023/05/22 08:24:06;;;;;;;23.90;10.02;;;16.80;99.90;;;;;;4971852;28;20046;-83
2023/05/22 08:26:46;;;;;;;27.63;11.00;;;16.80;99.90;;;;;;4990523;28;20046;-82
2023/05/22 08:29:12;;;;;;;29.67;10.80;;;16.70;99.90;;;;;;4975966;28;20042;-83
2023/05/22 08:31:38;;;;;;;29.00;10.82;;;16.60;99.90;;;;;;4989496;28;20038;-83
2023/05/22 08:34:05;;;;;;;23.23;11.57;;;16.60;99.90;;;;;;4990248;28;20149;-82
2023/05/22 08:36:39;;;;;;;25.33;10.43;;;16.50;99.90;;;;;;4988300;28;20502;-82
2023/05/22 08:39:06;;;;;;;24.98;11.05;;;16.60;99.90;;;;;;4969456;28;20619;-83
2023/05/22 08:41:32;;;;;;;25.20;12.10;;;16.50;99.90;;;;;;4958396;28;20513;-82
2023/05/22 08:43:57;;;;;;;27.23;10.85;;;16.60;99.90;;;;;;4976952;28;20049;-83
2023/05/22 08:46:31;;;;;;;24.20;11.25;;;16.60;99.90;;;;;;4994204;28;20042;-83
2023/05/22 08:48:57;;;;;;;25.63;10.38;;;16.60;99.90;;;;;;4991591;28;20046;-83
2023/05/22 08:51:28;;;;;;;22.27;10.45;;;16.70;99.90;;;;;;4970125;28;20125;-83
2023/05/22 08:53:55;;;;;;;23.25;11.05;;;16.70;99.90;;;;;;4987898;28;20046;-83
2023/05/22 08:56:21;;;;;;;26.40;11.38;;;16.80;99.90;;;;;;4979163;28;20434;-83
2023/05/22 08:58:50;;;;;;;22.90;11.32;;;16.80;99.90;;;;;;4971836;28;20039;-83
2023/05/22 09:01:16;;;;;;;22.63;11.18;;;16.90;99.90;;;;;;4971987;28;20046;-83
2023/05/22 09:03:42;;;;;;;23.08;11.48;;;16.90;99.90;;;;;;4975441;28;20030;-83
2023/05/22 09:06:10;;;;;;;21.02;10.65;;;17.10;99.90;;;;;;4988240;28;20135;-83
2023/05/22 09:08:36;;;;;;;22.02;11.13;;;17.00;99.90;;;;;;4971055;28;20046;-83
2023/05/22 09:11:02;;;;;;;22.45;11.18;;;17.10;99.90;;;;;;4962826;28;20399;-82
2023/05/22 09:13:30;;;;;;;25.25;11.43;;;17.40;99.90;;;;;;4975701;28;20478;-83
2023/05/22 09:16:10;;;;;;;23.60;11.15;;;17.60;99.90;;;;;;4975101;28;20035;-83
2023/05/22 09:18:39;;;;;;;22.48;11.40;;;17.40;99.90;;;;;;4991418;28;20695;-83
2023/05/22 09:21:13;;;;;;;20.30;11.55;;;17.50;99.90;;;;;;4990121;28;20460;-83
2023/05/22 09:23:39;;;;;;;21.60;11.60;;;17.70;99.90;;;;;;4974950;28;20555;-83
2023/05/22 09:26:04;;;;;;;17.13;10.65;;;17.70;99.90;;;;;;4977052;28;20050;-83
2023/05/22 09:28:35;;;;;;;21.35;11.68;;;18.10;99.90;;;;;;4958307;28;20046;-83
2023/05/22 09:31:05;;;;;;;18.80;11.05;;;17.90;99.90;;;;;;4988639;28;20200;-83
2023/05/22 09:33:31;;;;;;;23.13;11.85;;;18.00;99.90;;;;;;4970976;28;20142;-83
2023/05/22 09:35:57;;;;;;;16.20;11.80;;;18.30;99.90;;;;;;4988308;28;20052;-83
2023/05/22 09:38:27;;;;;;;19.98;11.80;;;18.10;99.90;;;;;;4979534;28;20177;-83
2023/05/22 09:40:53;;;;;;;17.92;12.02;;;17.80;99.90;;;;;;4979417;28;20084;-83
2023/05/22 09:43:21;;;;;;;17.77;11.45;;;18.20;99.90;;;;;;4953168;28;20226;-83
2023/05/22 09:45:47;;;;;;;20.05;11.65;;;18.60;99.90;;;;;;4976945;28;20594;-84
2023/05/22 09:48:16;;;;;;;17.27;11.38;;;18.60;99.90;;;;;;4975315;28;20050;-84
2023/05/22 09:50:49;;;;;;;21.02;11.35;;;19.30;99.90;;;;;;4987224;28;20042;-84
2023/05/22 09:53:17;;;;;;;18.40;11.52;;;19.60;99.90;;;;;;4969819;28;20078;-84
2023/05/22 09:55:54;;;;;;;16.98;11.68;;;20.00;99.90;;;;;;4977348;28;20045;-84
2023/05/22 09:58:23;;;;;;;19.20;10.98;;;20.40;99.90;;;;;;4974462;28;20041;-84
2023/05/22 10:01:09;;;;;;;17.10;11.52;;;21.00;99.90;;;;;;4970380;28;20046;-84
2023/05/22 10:03:36;;;;;;;18.45;11.32;;;21.80;99.90;;;;;;4973583;28;20034;-84
2023/05/22 10:06:03;;;;;;;20.92;11.70;;;21.50;99.90;;;;;;4978621;28;20055;-84
2023/05/22 10:08:42;;;;;;;17.58;11.63;;;20.60;99.90;;;;;;4972136;28;20042;-84
2023/05/22 10:11:09;;;;;;;19.13;11.27;;;21.90;99.90;;;;;;4976546;28;20052;-84
2023/05/22 10:13:43;;;;;;;18.83;11.32;;;22.30;99.90;;;;;;4969158;28;20133;-84
2023/05/22 10:16:10;;;;;;;17.00;10.90;;;22.20;99.90;;;;;;4971799;28;20747;-84
2023/05/22 10:18:37;;;;;;;19.38;10.93;;;22.90;99.90;;;;;;4977550;28;20051;-84
2023/05/22 10:21:06;;;;;;;18.58;10.07;;;23.00;99.90;;;;;;4970523;28;20175;-84
2023/05/22 10:23:35;;;;;;;17.63;11.10;;;23.30;99.90;;;;;;4986489;28;20066;-84
2023/05/22 10:26:00;;;;;;;16.67;11.23;;;22.90;99.90;;;;;;4962194;28;20053;-83
2023/05/22 10:28:37;;;;;;;16.55;11.27;;;22.80;99.90;;;;;;4974298;28;20045;-83
2023/05/22 10:31:35;;;;;;;19.58;11.75;;;22.70;99.90;;;;;;4975768;28;20057;-84
2023/05/22 10:34:06;;;;;;;18.25;11.68;;;22.30;99.90;;;;;;4987326;28;20077;-83
2023/05/22 10:36:59;;;;;;;15.50;11.38;;;22.90;99.90;;;;;;4974286;28;20667;-83
2023/05/22 10:39:42;;;;;;;19.17;12.20;;;23.10;99.90;;;;;;4988928;28;20232;-84
2023/05/22 10:42:16;;;;;;;19.10;11.25;;;23.20;99.90;;;;;;4968583;28;20038;-83
2023/05/22 10:44:45;;;;;;;14.73;10.82;;;23.40;99.90;;;;;;4955748;28;20101;-83
2023/05/22 10:47:17;;;;;;;15.43;11.10;;;23.30;99.90;;;;;;4977971;28;20046;-83
2023/05/22 10:49:44;;;;;;;13.70;11.00;;;23.60;99.90;;;;;;4971020;28;20109;-84
2023/05/22 10:52:10;;;;;;;18.02;11.02;;;22.90;99.90;;;;;;4987776;28;20053;-84
2023/05/22 10:54:47;;;;;;;19.13;11.27;;;22.70;99.90;;;;;;4979080;28;20057;-83
2023/05/22 10:57:15;;;;;;;15.70;11.48;;;22.90;99.90;;;;;;4976347;28;20057;-83
2023/05/22 10:59:41;;;;;;;15.85;11.35;;;22.40;99.90;;;;;;4979604;28;20397;-83
2023/05/22 11:02:39;;;;;;;15.18;11.35;;;22.70;99.90;;;;;;4970610;28;20146;-83
2023/05/22 11:05:35;;;;;;;16.35;11.15;;;22.80;99.90;;;;;;4970565;28;20089;-83
2023/05/22 11:08:31;;;;;;;17.60;11.07;;;22.70;99.90;;;;;;4962859;28;20164;-83
2023/05/22 11:11:00;;;;;;;15.80;11.02;;;23.20;99.90;;;;;;4964167;28;20054;-83
2023/05/22 11:13:26;;;;;;;17.77;11.50;;;22.90;99.90;;;;;;4975287;28;20050;-83
2023/05/22 11:15:55;;;;;;;19.42;11.65;;;23.90;99.90;;;;;;4992261;28;20081;-84
2023/05/22 11:18:20;;;;;;;15.40;11.05;;;23.80;99.90;;;;;;4987993;28;20043;-83
2023/05/22 11:20:46;;;;;;;19.88;12.07;;;24.50;99.90;;;;;;4953780;28;20532;-84
2023/05/22 11:23:12;;;;;;;17.35;11.95;;;25.00;99.90;;;;;;4972199;28;20042;-83
2023/05/22 11:25:39;;;;;;;16.50;10.93;;;24.60;99.90;;;;;;4972756;28;20050;-84
2023/05/22 11:28:06;;;;;;;20.13;11.82;;;24.60;99.90;;;;;;4954479;28;20051;-84
2023/05/22 11:30:33;;;;;;;15.30;11.30;;;24.40;99.90;;;;;;4971632;28;20065;-83
2023/05/22 11:32:59;;;;;;;14.93;12.05;;;24.60;99.90;;;;;;4975003;28;20042;-83
2023/05/22 11:35:26;;;;;;;14.88;11.30;;;24.90;99.90;;;;;;4958956;28;20049;-84
2023/05/22 11:37:53;;;;;;;14.88;11.27;;;25.50;99.90;;;;;;4976909;28;20042;-83
2023/05/22 11:40:21;;;;;;;14.15;10.73;;;25.30;99.90;;;;;;4993786;28;20043;-83
2023/05/22 11:42:47;;;;;;;14.10;10.70;;;25.90;99.90;;;;;;4971944;28;20552;-83
2023/05/22 11:45:13;;;;;;;14.98;10.95;;;26.00;99.90;;;;;;4990267;28;20393;-84
2023/05/22 11:47:41;;;;;;;13.40;11.00;;;25.90;99.90;;;;;;4956944;28;20153;-83
2023/05/22 11:50:11;;;;;;;15.35;11.93;;;25.60;99.90;;;;;;4981059;28;20089;-83
2023/05/22 11:52:39;;;;;;;14.80;12.18;;;25.70;99.90;;;;;;4979013;28;20038;-84
2023/05/22 11:55:06;;;;;;;13.68;12.13;;;25.90;99.90;;;;;;4981435;28;20088;-83
2023/05/22 11:57:33;;;;;;;15.40;12.98;;;25.90;99.90;;;;;;4959575;28;20045;-84
2023/05/22 12:00:00;;;;;;;15.90;13.55;;;25.60;99.90;;;;;;4962956;28;20035;-83
2023/05/22 12:02:26;;;;;;;17.20;13.68;;;26.00;99.90;;;;;;4977002;28;20034;-83
2023/05/22 12:04:56;;;;;;;15.77;13.68;;;26.00;99.90;;;;;;4981595;28;20537;-83
2023/05/22 12:07:23;;;;;;;18.05;14.23;;;26.10;99.90;;;;;;4974161;28;20050;-83
2023/05/22 12:09:59;;;;;;;16.42;14.30;;;25.90;99.90;;;;;;4993629;28;20050;-84
2023/05/22 12:12:25;;;;;;;16.63;14.25;;;26.10;99.90;;;;;;4985272;28;20131;-84
2023/05/22 12:14:52;;;;;;;20.00;14.88;;;25.90;99.90;;;;;;4988065;28;20070;-84
2023/05/22 12:17:18;;;;;;;18.52;15.00;;;25.80;99.90;;;;;;4987459;28;20711;-84
2023/05/22 12:19:46;;;;;;;17.92;15.15;;;26.20;99.90;;;;;;4987781;28;20169;-83
2023/05/22 12:22:12;;;;;;;19.13;16.27;;;25.10;99.90;;;;;;4988561;28;20780;-83
2023/05/22 12:24:46;;;;;;;22.58;16.73;;;24.80;99.90;;;;;;4979008;28;20030;-83
2023/05/22 12:27:12;;;;;;;19.48;16.30;;;24.80;99.90;;;;;;4958863;28;20042;-83
2023/05/22 12:29:39;;;;;;;18.27;15.63;;;24.20;99.90;;;;;;4980120;28;20060;-83
2023/05/22 12:32:09;;;;;;;17.33;15.55;;;23.30;99.90;;;;;;4974674;28;20042;-83
2023/05/22 12:34:41;;;;;;;20.40;16.40;;;23.50;99.90;;;;;;4990840;28;20242;-83